sensor_id;sensor_type;location;lat;lon;timestamp;pressure;altitude;pressure_sealevel;temperature;humidity
41366;BME280;27108;44.776;20.476;2022-08-19T00:01:32;99247.75;;;27.66;50.59
41366;BME280;27108;44.776;20.476;2022-08-19T00:04:03;99241.75;;;27.62;51.89
41366;BME280;27108;44.776;20.476;2022-08-19T00:06:34;99230.41;;;27.62;46.85
41366;BME280;27108;44.776;20.476;2022-08-19T00:09:04;99228.75;;;27.59;50.49
41366;BME280;27108;44.776;20.476;2022-08-19T00:11:36;99208.81;;;27.49;50.30
41366;BME280;27108;44.776;20.476;2022-08-19T00:14:09;99224.56;;;27.60;52.08
41366;BME280;27108;44.776;20.476;2022-08-19T00:16:42;99231.56;;;27.59;49.32
41366;BME280;27108;44.776;20.476;2022-08-19T00:19:11;99231.91;;;27.63;50.21
41366;BME280;27108;44.776;20.476;2022-08-19T00:21:41;99234.91;;;27.65;51.41
41366;BME280;27108;44.776;20.476;2022-08-19T00:24:13;99233.22;;;27.62;51.03
41366;BME280;27108;44.776;20.476;2022-08-19T00:26:44;99085.38;;;26.67;49.48
41366;BME280;27108;44.776;20.476;2022-08-19T00:29:19;99223.50;;;27.55;49.43
41366;BME280;27108;44.776;20.476;2022-08-19T00:31:49;99154.06;;;27.02;49.50
41366;BME280;27108;44.776;20.476;2022-08-19T00:34:21;99228.25;;;27.53;50.56
41366;BME280;27108;44.776;20.476;2022-08-19T00:36:55;99199.63;;;27.31;50.37
41366;BME280;27108;44.776;20.476;2022-08-19T00:39:26;99080.06;;;26.54;47.88
41366;BME280;27108;44.776;20.476;2022-08-19T00:42:01;99219.44;;;27.49;50.54
41366;BME280;27108;44.776;20.476;2022-08-19T00:44:31;99222.13;;;27.47;50.08
41366;BME280;27108;44.776;20.476;2022-08-19T00:47:02;99217.03;;;27.45;48.73
41366;BME280;27108;44.776;20.476;2022-08-19T00:49:37;99107.78;;;26.73;52.47
41366;BME280;27108;44.776;20.476;2022-08-19T00:52:14;99212.84;;;27.46;48.34
41366;BME280;27108;44.776;20.476;2022-08-19T00:54:44;99207.94;;;27.47;51.53
41366;BME280;27108;44.776;20.476;2022-08-19T00:57:19;99105.25;;;26.77;46.61
41366;BME280;27108;44.776;20.476;2022-08-19T00:59:54;99160.91;;;26.99;52.60
41366;BME280;27108;44.776;20.476;2022-08-19T01:02:23;99201.34;;;27.44;51.07
41366;BME280;27108;44.776;20.476;2022-08-19T01:04:55;99192.09;;;27.44;51.50
41366;BME280;27108;44.776;20.476;2022-08-19T01:07:24;99197.28;;;27.38;49.93
41366;BME280;27108;44.776;20.476;2022-08-19T01:09:53;99210.13;;;27.39;53.86
41366;BME280;27108;44.776;20.476;2022-08-19T01:12:23;99211.63;;;27.40;52.87
41366;BME280;27108;44.776;20.476;2022-08-19T01:14:56;99205.19;;;27.39;51.73
41366;BME280;27108;44.776;20.476;2022-08-19T01:17:25;99205.94;;;27.40;52.06
41366;BME280;27108;44.776;20.476;2022-08-19T01:19:56;99206.28;;;27.44;52.96
41366;BME280;27108;44.776;20.476;2022-08-19T01:22:30;99212.53;;;27.42;53.06
41366;BME280;27108;44.776;20.476;2022-08-19T01:25:03;99212.34;;;27.40;53.38
41366;BME280;27108;44.776;20.476;2022-08-19T01:27:38;99109.88;;;26.72;50.79
41366;BME280;27108;44.776;20.476;2022-08-19T01:30:09;99213.13;;;27.41;49.98
41366;BME280;27108;44.776;20.476;2022-08-19T01:32:41;99211.78;;;27.42;51.75
41366;BME280;27108;44.776;20.476;2022-08-19T01:35:13;99208.94;;;27.42;54.45
41366;BME280;27108;44.776;20.476;2022-08-19T01:37:53;99212.47;;;27.33;52.77
41366;BME280;27108;44.776;20.476;2022-08-19T01:40:27;99069.31;;;26.35;54.28
41366;BME280;27108;44.776;20.476;2022-08-19T01:42:59;99164.66;;;27.02;52.49
41366;BME280;27108;44.776;20.476;2022-08-19T01:45:34;99199.94;;;27.36;52.85
41366;BME280;27108;44.776;20.476;2022-08-19T01:48:04;99103.41;;;26.62;51.13
41366;BME280;27108;44.776;20.476;2022-08-19T01:50:36;99208.72;;;27.30;53.03
41366;BME280;27108;44.776;20.476;2022-08-19T01:53:11;99184.09;;;27.05;54.12
41366;BME280;27108;44.776;20.476;2022-08-19T01:55:42;99115.09;;;26.49;51.12
41366;BME280;27108;44.776;20.476;2022-08-19T01:58:14;99214.69;;;27.07;50.83
41366;BME280;27108;44.776;20.476;2022-08-19T02:00:43;99218.53;;;27.02;51.79
41366;BME280;27108;44.776;20.476;2022-08-19T02:03:12;99124.16;;;26.30;49.63
41366;BME280;27108;44.776;20.476;2022-08-19T02:05:43;99213.72;;;26.95;48.82
41366;BME280;27108;44.776;20.476;2022-08-19T02:08:19;99207.38;;;26.87;49.04
41366;BME280;27108;44.776;20.476;2022-08-19T02:10:48;99205.88;;;26.85;49.97
41366;BME280;27108;44.776;20.476;2022-08-19T02:13:17;99205.13;;;26.85;49.45
41366;BME280;27108;44.776;20.476;2022-08-19T02:15:50;99128.81;;;26.18;49.04
41366;BME280;27108;44.776;20.476;2022-08-19T02:18:23;99218.88;;;26.71;49.46
41366;BME280;27108;44.776;20.476;2022-08-19T02:20:56;99218.22;;;26.63;48.97
41366;BME280;27108;44.776;20.476;2022-08-19T02:23:27;99214.81;;;26.65;48.86
41366;BME280;27108;44.776;20.476;2022-08-19T02:25:55;99218.06;;;26.61;49.12
41366;BME280;27108;44.776;20.476;2022-08-19T02:28:24;99168.13;;;26.13;49.15
41366;BME280;27108;44.776;20.476;2022-08-19T02:30:53;99216.31;;;26.48;49.72
41366;BME280;27108;44.776;20.476;2022-08-19T02:33:24;99235.03;;;26.44;49.62
41366;BME280;27108;44.776;20.476;2022-08-19T02:35:53;99197.50;;;26.18;49.64
41366;BME280;27108;44.776;20.476;2022-08-19T02:38:28;99223.78;;;26.36;49.60
41366;BME280;27108;44.776;20.476;2022-08-19T02:41:02;99216.44;;;26.33;49.32
41366;BME280;27108;44.776;20.476;2022-08-19T02:43:33;99221.38;;;26.32;49.94
41366;BME280;27108;44.776;20.476;2022-08-19T02:46:13;99224.59;;;26.29;50.54
41366;BME280;27108;44.776;20.476;2022-08-19T02:48:44;99216.34;;;26.23;50.66
41366;BME280;27108;44.776;20.476;2022-08-19T02:51:17;99216.91;;;26.22;50.11
41366;BME280;27108;44.776;20.476;2022-08-19T02:53:51;99217.34;;;26.18;50.16
41366;BME280;27108;44.776;20.476;2022-08-19T02:56:20;99215.84;;;26.17;49.88
41366;BME280;27108;44.776;20.476;2022-08-19T02:58:50;99207.75;;;26.13;50.67
41366;BME280;27108;44.776;20.476;2022-08-19T03:01:24;99124.41;;;25.57;50.46
41366;BME280;27108;44.776;20.476;2022-08-19T03:03:54;99158.59;;;25.76;50.03
41366;BME280;27108;44.776;20.476;2022-08-19T03:06:24;99074.97;;;25.15;49.29
41366;BME280;27108;44.776;20.476;2022-08-19T03:08:56;99205.56;;;26.04;49.05
41366;BME280;27108;44.776;20.476;2022-08-19T03:11:27;99208.97;;;26.03;48.91
41366;BME280;27108;44.776;20.476;2022-08-19T03:13:56;99102.78;;;25.27;48.85
41366;BME280;27108;44.776;20.476;2022-08-19T03:16:29;99210.06;;;26.07;48.62
41366;BME280;27108;44.776;20.476;2022-08-19T03:18:58;99207.41;;;26.09;48.36
41366;BME280;27108;44.776;20.476;2022-08-19T03:21:31;99202.31;;;26.08;48.30
41366;BME280;27108;44.776;20.476;2022-08-19T03:24:06;99212.16;;;26.07;47.85
41366;BME280;27108;44.776;20.476;2022-08-19T03:26:39;99198.75;;;26.07;47.59
41366;BME280;27108;44.776;20.476;2022-08-19T03:29:08;99208.91;;;26.10;47.25
41366;BME280;27108;44.776;20.476;2022-08-19T03:31:40;99123.16;;;25.50;47.00
41366;BME280;27108;44.776;20.476;2022-08-19T03:34:12;99215.50;;;26.13;47.62
41366;BME280;27108;44.776;20.476;2022-08-19T03:36:43;99216.81;;;26.12;48.41
41366;BME280;27108;44.776;20.476;2022-08-19T03:39:17;99216.47;;;26.08;49.11
41366;BME280;27108;44.776;20.476;2022-08-19T03:46:35;99221.81;;;26.04;49.70
41366;BME280;27108;44.776;20.476;2022-08-19T03:49:07;99193.31;;;25.77;50.22
41366;BME280;27108;44.776;20.476;2022-08-19T03:51:38;99147.94;;;25.42;49.70
41366;BME280;27108;44.776;20.476;2022-08-19T03:54:08;99236.59;;;25.95;50.26
41366;BME280;27108;44.776;20.476;2022-08-19T03:56:39;99241.94;;;25.90;50.39
41366;BME280;27108;44.776;20.476;2022-08-19T03:59:12;99238.09;;;25.96;50.57
41366;BME280;27108;44.776;20.476;2022-08-19T04:01:42;99145.94;;;25.27;50.36
41366;BME280;27108;44.776;20.476;2022-08-19T04:04:12;99233.53;;;26.00;50.02
41366;BME280;27108;44.776;20.476;2022-08-19T04:06:43;99236.06;;;25.88;51.31
41366;BME280;27108;44.776;20.476;2022-08-19T04:09:14;99237.53;;;25.97;51.16
41366;BME280;27108;44.776;20.476;2022-08-19T04:11:49;99243.75;;;25.96;51.38
41366;BME280;27108;44.776;20.476;2022-08-19T04:14:23;99238.69;;;25.94;51.38
41366;BME280;27108;44.776;20.476;2022-08-19T04:16:52;99237.94;;;25.94;51.85
41366;BME280;27108;44.776;20.476;2022-08-19T04:19:22;99245.09;;;25.95;51.75
41366;BME280;27108;44.776;20.476;2022-08-19T04:21:52;99231.28;;;25.99;50.70
41366;BME280;27108;44.776;20.476;2022-08-19T04:24:22;99254.09;;;26.01;50.87
41366;BME280;27108;44.776;20.476;2022-08-19T04:26:59;99239.53;;;26.04;50.42
41366;BME280;27108;44.776;20.476;2022-08-19T04:29:28;99190.00;;;25.63;51.00
41366;BME280;27108;44.776;20.476;2022-08-19T04:32:01;99122.25;;;25.22;51.03
41366;BME280;27108;44.776;20.476;2022-08-19T04:34:29;99228.56;;;26.08;51.23
41366;BME280;27108;44.776;20.476;2022-08-19T04:36:59;99237.78;;;26.09;51.51
41366;BME280;27108;44.776;20.476;2022-08-19T04:39:31;99242.16;;;26.10;51.16
41366;BME280;27108;44.776;20.476;2022-08-19T04:42:18;99105.16;;;25.13;51.17
41366;BME280;27108;44.776;20.476;2022-08-19T04:45:09;99228.22;;;26.04;51.50
41366;BME280;27108;44.776;20.476;2022-08-19T04:47:43;99245.09;;;26.20;50.63
41366;BME280;27108;44.776;20.476;2022-08-19T04:50:13;99245.00;;;26.27;50.61
41366;BME280;27108;44.776;20.476;2022-08-19T04:52:45;99174.41;;;25.79;50.99
41366;BME280;27108;44.776;20.476;2022-08-19T04:55:14;99247.34;;;26.38;51.54
41366;BME280;27108;44.776;20.476;2022-08-19T04:57:46;99137.88;;;25.74;51.04
41366;BME280;27108;44.776;20.476;2022-08-19T05:00:17;99217.44;;;26.28;51.04
41366;BME280;27108;44.776;20.476;2022-08-19T05:02:46;99234.44;;;26.45;51.14
41366;BME280;27108;44.776;20.476;2022-08-19T05:05:19;99232.31;;;26.53;51.17
41366;BME280;27108;44.776;20.476;2022-08-19T05:07:48;99186.34;;;26.20;51.58
41366;BME280;27108;44.776;20.476;2022-08-19T05:10:17;99228.56;;;26.51;51.57
41366;BME280;27108;44.776;20.476;2022-08-19T05:12:47;99227.41;;;26.54;51.24
41366;BME280;27108;44.776;20.476;2022-08-19T05:15:15;99234.13;;;26.58;50.18
41366;BME280;27108;44.776;20.476;2022-08-19T05:17:47;99231.06;;;26.64;51.22
41366;BME280;27108;44.776;20.476;2022-08-19T05:20:30;99241.91;;;26.75;50.38
41366;BME280;27108;44.776;20.476;2022-08-19T05:23:17;99233.91;;;26.81;49.46
41366;BME280;27108;44.776;20.476;2022-08-19T05:25:51;99139.38;;;26.17;49.47
41366;BME280;27108;44.776;20.476;2022-08-19T05:28:21;99248.97;;;27.01;48.30
41366;BME280;27108;44.776;20.476;2022-08-19T05:30:50;99243.38;;;27.11;48.21
41366;BME280;27108;44.776;20.476;2022-08-19T05:33:20;99241.22;;;27.19;48.42
41366;BME280;27108;44.776;20.476;2022-08-19T05:35:50;99241.28;;;27.29;48.92
41366;BME280;27108;44.776;20.476;2022-08-19T05:38:20;99220.19;;;27.22;48.34
41366;BME280;27108;44.776;20.476;2022-08-19T05:40:52;99239.84;;;27.38;47.80
41366;BME280;27108;44.776;20.476;2022-08-19T05:43:24;99239.16;;;27.47;47.93
41366;BME280;27108;44.776;20.476;2022-08-19T05:45:55;99237.94;;;27.50;47.92
41366;BME280;27108;44.776;20.476;2022-08-19T05:48:24;99241.44;;;27.58;48.94
41366;BME280;27108;44.776;20.476;2022-08-19T05:50:53;99242.50;;;27.63;49.56
41366;BME280;27108;44.776;20.476;2022-08-19T05:53:22;99255.50;;;27.66;50.04
41366;BME280;27108;44.776;20.476;2022-08-19T05:55:51;99153.94;;;27.10;50.37
41366;BME280;27108;44.776;20.476;2022-08-19T05:58:21;99233.03;;;27.77;51.31
41366;BME280;27108;44.776;20.476;2022-08-19T06:00:53;99238.59;;;27.85;51.36
41366;BME280;27108;44.776;20.476;2022-08-19T06:03:21;99231.00;;;27.97;50.50
41366;BME280;27108;44.776;20.476;2022-08-19T06:05:52;99237.59;;;28.00;50.62
41366;BME280;27108;44.776;20.476;2022-08-19T06:08:22;99237.31;;;28.06;50.09
41366;BME280;27108;44.776;20.476;2022-08-19T06:10:52;99229.72;;;28.18;47.10
41366;BME280;27108;44.776;20.476;2022-08-19T06:13:21;99238.16;;;28.35;44.72
41366;BME280;27108;44.776;20.476;2022-08-19T06:15:50;99241.03;;;28.45;45.48
41366;BME280;27108;44.776;20.476;2022-08-19T06:18:20;99238.50;;;28.59;43.88
41366;BME280;27108;44.776;20.476;2022-08-19T06:20:51;99227.88;;;28.59;45.23
41366;BME280;27108;44.776;20.476;2022-08-19T06:23:21;99246.88;;;28.86;43.57
41366;BME280;27108;44.776;20.476;2022-08-19T06:25:53;99244.78;;;28.96;43.67
41366;BME280;27108;44.776;20.476;2022-08-19T06:28:22;99244.34;;;29.09;43.08
41366;BME280;27108;44.776;20.476;2022-08-19T06:30:53;99241.47;;;29.19;43.11
41366;BME280;27108;44.776;20.476;2022-08-19T06:33:24;99241.63;;;29.31;42.16
41366;BME280;27108;44.776;20.476;2022-08-19T06:35:53;99236.81;;;29.33;42.38
41366;BME280;27108;44.776;20.476;2022-08-19T06:38:21;99244.72;;;29.45;42.14
41366;BME280;27108;44.776;20.476;2022-08-19T06:41:00;99246.19;;;29.55;42.96
41366;BME280;27108;44.776;20.476;2022-08-19T06:43:30;99090.34;;;28.64;41.41
41366;BME280;27108;44.776;20.476;2022-08-19T06:46:01;99227.41;;;29.72;42.44
41366;BME280;27108;44.776;20.476;2022-08-19T06:48:37;99230.06;;;29.89;41.72
41366;BME280;27108;44.776;20.476;2022-08-19T06:51:08;99172.31;;;29.67;40.84
41366;BME280;27108;44.776;20.476;2022-08-19T06:53:36;99238.00;;;30.22;39.71
41366;BME280;27108;44.776;20.476;2022-08-19T06:56:08;99237.91;;;30.41;40.74
41366;BME280;27108;44.776;20.476;2022-08-19T06:58:37;99241.94;;;30.60;39.93
41366;BME280;27108;44.776;20.476;2022-08-19T07:01:05;99250.16;;;30.87;40.32
41366;BME280;27108;44.776;20.476;2022-08-19T07:03:37;99242.56;;;31.13;40.65
41366;BME280;27108;44.776;20.476;2022-08-19T07:06:09;99212.16;;;31.06;39.91
41366;BME280;27108;44.776;20.476;2022-08-19T07:08:40;99256.25;;;31.71;40.30
41366;BME280;27108;44.776;20.476;2022-08-19T07:11:11;99258.16;;;31.90;41.01
41366;BME280;27108;44.776;20.476;2022-08-19T07:13:42;99258.78;;;32.12;40.95
41366;BME280;27108;44.776;20.476;2022-08-19T07:16:14;99260.59;;;32.31;42.06
41366;BME280;27108;44.776;20.476;2022-08-19T07:18:45;99259.22;;;32.55;42.07
41366;BME280;27108;44.776;20.476;2022-08-19T07:21:17;99262.38;;;32.73;41.30
41366;BME280;27108;44.776;20.476;2022-08-19T07:23:47;99253.44;;;32.79;40.24
41366;BME280;27108;44.776;20.476;2022-08-19T07:26:22;99267.56;;;32.88;40.18
41366;BME280;27108;44.776;20.476;2022-08-19T07:28:55;99262.13;;;33.18;40.19
41366;BME280;27108;44.776;20.476;2022-08-19T07:31:27;99281.63;;;33.47;41.66
41366;BME280;27108;44.776;20.476;2022-08-19T07:33:58;99273.34;;;33.65;39.77
41366;BME280;27108;44.776;20.476;2022-08-19T07:36:28;99185.50;;;33.30;38.35
41366;BME280;27108;44.776;20.476;2022-08-19T07:38:58;99259.78;;;33.93;37.21
41366;BME280;27108;44.776;20.476;2022-08-19T07:41:28;99265.75;;;34.25;38.41
41366;BME280;27108;44.776;20.476;2022-08-19T07:43:59;99270.41;;;34.46;37.53
41366;BME280;27108;44.776;20.476;2022-08-19T07:46:36;99264.06;;;34.61;36.96
41366;BME280;27108;44.776;20.476;2022-08-19T07:49:07;99270.38;;;34.87;37.60
41366;BME280;27108;44.776;20.476;2022-08-19T07:51:41;99211.63;;;34.75;37.25
41366;BME280;27108;44.776;20.476;2022-08-19T07:54:13;99261.72;;;35.31;36.31
41366;BME280;27108;44.776;20.476;2022-08-19T07:56:42;99234.75;;;35.38;34.20
41366;BME280;27108;44.776;20.476;2022-08-19T07:59:13;99246.84;;;35.82;35.17
41366;BME280;27108;44.776;20.476;2022-08-19T08:01:44;99206.78;;;35.86;34.64
41366;BME280;27108;44.776;20.476;2022-08-19T08:04:20;99235.47;;;36.33;33.33
41366;BME280;27108;44.776;20.476;2022-08-19T08:07:09;99230.53;;;36.70;33.20
41366;BME280;27108;44.776;20.476;2022-08-19T08:09:59;99223.16;;;37.00;31.81
41366;BME280;27108;44.776;20.476;2022-08-19T08:12:32;99224.13;;;37.25;31.71
41366;BME280;27108;44.776;20.476;2022-08-19T08:15:07;99227.97;;;37.49;32.31
41366;BME280;27108;44.776;20.476;2022-08-19T08:17:36;99206.47;;;37.72;30.69
41366;BME280;27108;44.776;20.476;2022-08-19T08:20:11;99209.00;;;38.02;30.49
41366;BME280;27108;44.776;20.476;2022-08-19T08:22:43;99170.16;;;37.85;29.85
41366;BME280;27108;44.776;20.476;2022-08-19T08:25:30;99214.44;;;38.34;29.48
41366;BME280;27108;44.776;20.476;2022-08-19T08:28:12;99210.78;;;38.75;28.95
41366;BME280;27108;44.776;20.476;2022-08-19T08:30:44;99202.88;;;38.76;29.08
41366;BME280;27108;44.776;20.476;2022-08-19T08:33:21;99210.97;;;38.81;29.29
41366;BME280;27108;44.776;20.476;2022-08-19T08:35:52;99203.94;;;38.86;28.44
41366;BME280;27108;44.776;20.476;2022-08-19T08:38:22;99202.22;;;39.01;28.22
41366;BME280;27108;44.776;20.476;2022-08-19T08:40:57;99176.78;;;38.96;28.84
41366;BME280;27108;44.776;20.476;2022-08-19T08:43:34;99209.03;;;39.34;27.78
41366;BME280;27108;44.776;20.476;2022-08-19T08:46:08;99223.84;;;39.22;28.66
41366;BME280;27108;44.776;20.476;2022-08-19T08:48:41;99159.69;;;39.04;28.41
41366;BME280;27108;44.776;20.476;2022-08-19T08:51:29;99213.19;;;39.05;28.57
41366;BME280;27108;44.776;20.476;2022-08-19T08:54:02;99208.91;;;39.30;29.55
41366;BME280;27108;44.776;20.476;2022-08-19T08:56:33;99211.59;;;39.00;28.51
41366;BME280;27108;44.776;20.476;2022-08-19T08:59:09;99179.69;;;38.96;29.75
41366;BME280;27108;44.776;20.476;2022-08-19T09:01:40;99197.63;;;39.38;27.92
41366;BME280;27108;44.776;20.476;2022-08-19T09:04:09;99203.25;;;39.58;28.62
41366;BME280;27108;44.776;20.476;2022-08-19T09:06:49;99209.53;;;39.74;28.23
41366;BME280;27108;44.776;20.476;2022-08-19T09:09:29;99198.31;;;39.87;27.60
41366;BME280;27108;44.776;20.476;2022-08-19T09:12:06;99193.00;;;39.79;27.40
41366;BME280;27108;44.776;20.476;2022-08-19T09:14:45;99189.28;;;39.74;27.33
41366;BME280;27108;44.776;20.476;2022-08-19T09:17:19;99185.19;;;39.33;27.69
41366;BME280;27108;44.776;20.476;2022-08-19T09:19:58;99175.34;;;39.43;26.28
41366;BME280;27108;44.776;20.476;2022-08-19T09:22:33;99180.59;;;39.50;27.09
41366;BME280;27108;44.776;20.476;2022-08-19T09:25:05;99170.41;;;39.47;26.34
41366;BME280;27108;44.776;20.476;2022-08-19T09:27:35;99129.59;;;38.87;27.06
41366;BME280;27108;44.776;20.476;2022-08-19T09:30:05;99179.47;;;39.36;27.32
41366;BME280;27108;44.776;20.476;2022-08-19T09:32:39;99181.78;;;39.17;27.57
41366;BME280;27108;44.776;20.476;2022-08-19T09:35:09;99180.91;;;39.13;27.86
41366;BME280;27108;44.776;20.476;2022-08-19T09:37:42;99170.72;;;38.85;27.85
41366;BME280;27108;44.776;20.476;2022-08-19T09:40:12;99102.22;;;38.22;28.40
41366;BME280;27108;44.776;20.476;2022-08-19T09:42:42;99081.28;;;38.00;28.60
41366;BME280;27108;44.776;20.476;2022-08-19T09:45:13;99192.50;;;38.91;29.16
41366;BME280;27108;44.776;20.476;2022-08-19T09:47:42;99117.78;;;38.13;28.93
41366;BME280;27108;44.776;20.476;2022-08-19T09:50:14;99174.84;;;38.58;28.99
41366;BME280;27108;44.776;20.476;2022-08-19T09:52:46;99146.81;;;37.97;28.97
41366;BME280;27108;44.776;20.476;2022-08-19T09:55:14;99184.00;;;38.09;30.04
41366;BME280;27108;44.776;20.476;2022-08-19T09:57:44;98992.34;;;36.70;29.75
41366;BME280;27108;44.776;20.476;2022-08-19T10:00:14;99138.75;;;37.73;29.25
41366;BME280;27108;44.776;20.476;2022-08-19T10:02:42;99180.84;;;38.23;28.83
41366;BME280;27108;44.776;20.476;2022-08-19T10:05:12;99161.59;;;38.29;28.53
41366;BME280;27108;44.776;20.476;2022-08-19T10:08:00;99160.88;;;38.07;29.05
41366;BME280;27108;44.776;20.476;2022-08-19T10:10:30;99089.03;;;37.53;29.21
41366;BME280;27108;44.776;20.476;2022-08-19T10:13:05;99161.53;;;37.65;29.27
41366;BME280;27108;44.776;20.476;2022-08-19T10:15:39;99038.78;;;36.80;29.50
41366;BME280;27108;44.776;20.476;2022-08-19T10:18:10;99167.53;;;37.91;29.34
41366;BME280;27108;44.776;20.476;2022-08-19T10:20:39;99073.88;;;37.53;28.11
41366;BME280;27108;44.776;20.476;2022-08-19T10:23:10;99162.97;;;38.06;28.02
41366;BME280;27108;44.776;20.476;2022-08-19T10:25:46;99151.19;;;37.98;28.10
41366;BME280;27108;44.776;20.476;2022-08-19T10:28:15;99157.53;;;37.94;27.83
41366;BME280;27108;44.776;20.476;2022-08-19T10:30:45;99148.53;;;37.64;28.28
41366;BME280;27108;44.776;20.476;2022-08-19T10:33:15;99159.91;;;37.60;28.21
41366;BME280;27108;44.776;20.476;2022-08-19T10:35:47;99161.31;;;37.59;27.78
41366;BME280;27108;44.776;20.476;2022-08-19T10:38:29;99136.91;;;37.42;27.84
41366;BME280;27108;44.776;20.476;2022-08-19T10:41:06;99061.72;;;36.96;28.01
41366;BME280;27108;44.776;20.476;2022-08-19T10:43:36;99152.53;;;37.55;28.10
41366;BME280;27108;44.776;20.476;2022-08-19T10:46:08;99155.03;;;37.45;28.30
41366;BME280;27108;44.776;20.476;2022-08-19T10:48:37;99155.78;;;37.45;28.65
41366;BME280;27108;44.776;20.476;2022-08-19T10:51:09;99157.25;;;37.46;28.05
41366;BME280;27108;44.776;20.476;2022-08-19T10:53:56;99101.09;;;37.10;28.42
41366;BME280;27108;44.776;20.476;2022-08-19T10:56:25;99144.81;;;37.42;28.61
41366;BME280;27108;44.776;20.476;2022-08-19T10:59:08;99059.38;;;36.73;27.38
41366;BME280;27108;44.776;20.476;2022-08-19T11:01:42;99135.25;;;37.37;27.54
41366;BME280;27108;44.776;20.476;2022-08-19T11:04:11;99132.22;;;37.33;27.00
41366;BME280;27108;44.776;20.476;2022-08-19T11:06:41;99131.34;;;37.29;26.74
41366;BME280;27108;44.776;20.476;2022-08-19T11:09:11;99128.09;;;37.38;26.45
41366;BME280;27108;44.776;20.476;2022-08-19T11:11:40;99122.16;;;37.34;26.36
41366;BME280;27108;44.776;20.476;2022-08-19T11:14:12;99125.81;;;37.35;26.86
41366;BME280;27108;44.776;20.476;2022-08-19T11:16:43;99123.28;;;37.25;27.33
41366;BME280;27108;44.776;20.476;2022-08-19T11:19:12;99115.22;;;37.21;28.21
41366;BME280;27108;44.776;20.476;2022-08-19T11:21:48;99112.50;;;37.25;28.04
41366;BME280;27108;44.776;20.476;2022-08-19T11:24:23;99112.50;;;37.25;27.19
41366;BME280;27108;44.776;20.476;2022-08-19T11:26:55;99116.41;;;37.34;25.85
41366;BME280;27108;44.776;20.476;2022-08-19T11:29:29;99102.97;;;37.41;25.89
41366;BME280;27108;44.776;20.476;2022-08-19T11:32:06;99086.13;;;37.33;26.43
41366;BME280;27108;44.776;20.476;2022-08-19T11:34:37;99114.59;;;37.63;25.67
41366;BME280;27108;44.776;20.476;2022-08-19T11:37:06;99100.53;;;37.73;25.33
41366;BME280;27108;44.776;20.476;2022-08-19T11:39:41;99052.50;;;37.40;25.26
41366;BME280;27108;44.776;20.476;2022-08-19T11:42:11;99104.09;;;37.71;25.41
41366;BME280;27108;44.776;20.476;2022-08-19T11:44:56;99100.59;;;37.75;24.83
41366;BME280;27108;44.776;20.476;2022-08-19T11:47:24;99012.47;;;37.28;24.79
41366;BME280;27108;44.776;20.476;2022-08-19T11:49:54;99038.69;;;37.36;24.79
41366;BME280;27108;44.776;20.476;2022-08-19T11:52:23;99034.41;;;37.37;25.69
41366;BME280;27108;44.776;20.476;2022-08-19T11:54:55;99073.25;;;37.76;24.37
41366;BME280;27108;44.776;20.476;2022-08-19T11:57:24;99042.84;;;37.51;25.36
41366;BME280;27108;44.776;20.476;2022-08-19T11:59:54;99091.34;;;37.99;24.47
41366;BME280;27108;44.776;20.476;2022-08-19T12:02:38;99087.84;;;38.02;24.13
41366;BME280;27108;44.776;20.476;2022-08-19T12:05:09;99082.75;;;38.01;24.13
41366;BME280;27108;44.776;20.476;2022-08-19T12:07:40;99089.78;;;37.95;24.44
41366;BME280;27108;44.776;20.476;2022-08-19T12:10:11;99089.88;;;37.98;24.50
41366;BME280;27108;44.776;20.476;2022-08-19T12:12:42;99054.59;;;37.79;23.28
41366;BME280;27108;44.776;20.476;2022-08-19T12:15:13;99085.25;;;38.10;23.71
41366;BME280;27108;44.776;20.476;2022-08-19T12:17:44;99084.53;;;38.10;24.39
41366;BME280;27108;44.776;20.476;2022-08-19T12:20:14;99090.28;;;38.10;24.85
41366;BME280;27108;44.776;20.476;2022-08-19T12:22:45;99086.25;;;38.19;23.36
41366;BME280;27108;44.776;20.476;2022-08-19T12:25:20;99086.94;;;38.17;23.18
41366;BME280;27108;44.776;20.476;2022-08-19T12:27:51;99087.66;;;38.18;23.63
41366;BME280;27108;44.776;20.476;2022-08-19T12:30:23;99081.28;;;38.22;22.63
41366;BME280;27108;44.776;20.476;2022-08-19T12:32:52;99073.22;;;38.18;23.12
41366;BME280;27108;44.776;20.476;2022-08-19T12:35:22;99082.63;;;38.18;23.51
41366;BME280;27108;44.776;20.476;2022-08-19T12:37:51;99066.19;;;38.23;23.47
41366;BME280;27108;44.776;20.476;2022-08-19T12:40:24;99082.00;;;38.22;23.90
41366;BME280;27108;44.776;20.476;2022-08-19T12:42:53;99071.09;;;38.18;23.91
41366;BME280;27108;44.776;20.476;2022-08-19T12:45:23;99078.19;;;38.15;24.76
41366;BME280;27108;44.776;20.476;2022-08-19T12:47:52;99070.34;;;38.18;24.04
41366;BME280;27108;44.776;20.476;2022-08-19T12:50:22;99068.81;;;38.15;23.27
41366;BME280;27108;44.776;20.476;2022-08-19T12:52:52;99031.63;;;37.81;24.26
41366;BME280;27108;44.776;20.476;2022-08-19T12:55:23;99080.22;;;38.11;24.85
41366;BME280;27108;44.776;20.476;2022-08-19T12:57:52;99061.38;;;38.08;24.88
41366;BME280;27108;44.776;20.476;2022-08-19T13:00:22;99040.72;;;37.93;24.54
41366;BME280;27108;44.776;20.476;2022-08-19T13:02:52;99044.19;;;38.12;23.83
41366;BME280;27108;44.776;20.476;2022-08-19T13:05:22;99049.09;;;38.07;23.78
41366;BME280;27108;44.776;20.476;2022-08-19T13:07:54;99052.59;;;38.04;23.74
41366;BME280;27108;44.776;20.476;2022-08-19T13:10:29;99048.34;;;38.07;24.47
41366;BME280;27108;44.776;20.476;2022-08-19T13:12:58;99052.59;;;38.04;24.23
41366;BME280;27108;44.776;20.476;2022-08-19T13:15:28;99054.72;;;38.03;23.60
41366;BME280;27108;44.776;20.476;2022-08-19T13:17:59;99046.13;;;38.05;23.94
41366;BME280;27108;44.776;20.476;2022-08-19T13:20:30;99020.66;;;37.98;24.67